Time;durP1;ratioP1;P1;durP2;ratioP2;P2;SDS_P1;SDS_P2;PMS_P1;PMS_P2;Temp;Humidity;BMP_temperature;BMP_pressure;BME280_temperature;BME280_humidity;BME280_pressure;Samples;Min_cycle;Max_cycle;Signal;HPM_P1;HPM_P2
2022/11/28 00:00:01;;;;;;;27.42;17.35;;;;;;;;;;4978267;28;20130;-73
2022/11/28 00:02:26;;;;;;;25.13;15.10;;;;;;;;;;4980128;28;20042;-74
2022/11/28 00:04:52;;;;;;;22.13;15.50;;;;;;;;;;4980560;28;20033;-74
2022/11/28 00:07:20;;;;;;;19.55;14.18;;;;;;;;;;4979510;28;20038;-74
2022/11/28 00:09:45;;;;;;;29.95;17.80;;;;;;;;;;4979867;28;20569;-74
2022/11/28 00:12:12;;;;;;;25.08;17.25;;;;;;;;;;4980756;28;20030;-75
2022/11/28 00:14:38;;;;;;;32.13;20.27;;;;;;;;;;4977093;28;20426;-74
2022/11/28 00:17:04;;;;;;;26.27;16.50;;;;;;;;;;4980026;28;20033;-75
2022/11/28 00:19:29;;;;;;;28.92;15.85;;;;;;;;;;4961469;28;20175;-74
2022/11/28 00:21:54;;;;;;;27.42;16.45;;;;;;;;;;4980959;28;20558;-74
2022/11/28 00:24:20;;;;;;;24.65;15.25;;;;;;;;;;4977447;28;20037;-74
2022/11/28 00:26:45;;;;;;;44.92;19.92;;;;;;;;;;4962007;28;20137;-74
2022/11/28 00:29:13;;;;;;;31.02;17.98;;;;;;;;;;4976125;28;20628;-74
2022/11/28 00:31:41;;;;;;;31.42;18.73;;;;;;;;;;4978859;28;20230;-74
2022/11/28 00:34:10;;;;;;;22.73;15.85;;;;;;;;;;4979435;28;20153;-74
2022/11/28 00:36:36;;;;;;;18.80;15.15;;;;;;;;;;4977598;28;20044;-74
2022/11/28 00:39:02;;;;;;;20.73;15.20;;;;;;;;;;5008254;28;20045;-74
2022/11/28 00:41:29;;;;;;;22.75;15.20;;;;;;;;;;4980012;28;20162;-74
2022/11/28 00:43:58;;;;;;;19.73;15.40;;;;;;;;;;4979419;28;20337;-74
2022/11/28 00:46:23;;;;;;;18.80;14.32;;;;;;;;;;5010462;28;20053;-74
2022/11/28 00:48:49;;;;;;;22.60;16.33;;;;;;;;;;4977696;28;20246;-74
2022/11/28 00:51:20;;;;;;;22.17;15.70;;;;;;;;;;4978080;28;20042;-74
2022/11/28 00:53:46;;;;;;;24.13;16.38;;;;;;;;;;4977188;28;20462;-74
2022/11/28 00:56:13;;;;;;;39.53;28.80;;;;;;;;;;4959303;28;20041;-74
2022/11/28 00:58:39;;;;;;;54.95;45.53;;;;;;;;;;4978760;28;20046;-74
2022/11/28 01:01:08;;;;;;;62.67;51.30;;;;;;;;;;4975393;28;20568;-74
2022/11/28 01:03:34;;;;;;;54.67;42.25;;;;;;;;;;4979779;28;20771;-74
2022/11/28 01:05:59;;;;;;;50.05;40.22;;;;;;;;;;4976444;28;20041;-72
2022/11/28 01:08:25;;;;;;;69.00;56.92;;;;;;;;;;4977054;28;20268;-74
2022/11/28 01:10:51;;;;;;;63.90;50.67;;;;;;;;;;4977112;28;20041;-74
2022/11/28 01:13:16;;;;;;;51.55;40.55;;;;;;;;;;4978545;28;20069;-74
2022/11/28 01:15:42;;;;;;;80.63;64.57;;;;;;;;;;4976377;28;20041;-73
2022/11/28 01:18:08;;;;;;;87.43;74.93;;;;;;;;;;4978477;28;20128;-73
2022/11/28 01:20:34;;;;;;;69.65;58.15;;;;;;;;;;4981770;28;20529;-73
2022/11/28 01:22:59;;;;;;;49.83;42.30;;;;;;;;;;4982875;28;20036;-73
2022/11/28 01:25:27;;;;;;;64.63;49.22;;;;;;;;;;4981489;28;20053;-73
2022/11/28 01:27:54;;;;;;;64.65;54.63;;;;;;;;;;4983879;28;20029;-72
2022/11/28 01:30:20;;;;;;;62.22;51.55;;;;;;;;;;4978478;28;20599;-73
2022/11/28 01:32:45;;;;;;;85.75;67.13;;;;;;;;;;4983637;28;20038;-72
2022/11/28 01:35:12;;;;;;;85.32;66.82;;;;;;;;;;4980488;28;20538;-74
2022/11/28 01:37:38;;;;;;;88.35;78.88;;;;;;;;;;5013788;28;20111;-73
2022/11/28 01:40:04;;;;;;;81.50;64.15;;;;;;;;;;4978732;28;20651;-72
2022/11/28 01:42:29;;;;;;;89.10;76.40;;;;;;;;;;4981538;28;20453;-72
2022/11/28 01:45:14;;;;;;;107.43;91.60;;;;;;;;;;4978427;28;20950;-73
2022/11/28 01:47:40;;;;;;;78.63;63.40;;;;;;;;;;4983921;28;20588;-73
2022/11/28 01:50:06;;;;;;;62.47;52.00;;;;;;;;;;4988870;28;20046;-72
2022/11/28 01:52:32;;;;;;;84.13;64.60;;;;;;;;;;4981404;28;20635;-72
2022/11/28 01:54:59;;;;;;;90.18;69.28;;;;;;;;;;5014691;28;20529;-72
2022/11/28 01:57:25;;;;;;;92.65;73.80;;;;;;;;;;5001697;28;20040;-73
2022/11/28 02:00:10;;;;;;;79.93;67.10;;;;;;;;;;5001301;28;20052;-73
2022/11/28 02:02:39;;;;;;;76.40;59.85;;;;;;;;;;5000704;28;20888;-72
2022/11/28 02:05:07;;;;;;;74.20;55.28;;;;;;;;;;4998284;28;20048;-72
2022/11/28 02:07:33;;;;;;;75.47;50.95;;;;;;;;;;5001684;28;20469;-73
2022/11/28 02:10:00;;;;;;;66.50;50.38;;;;;;;;;;5001554;28;20365;-72
2022/11/28 02:12:44;;;;;;;76.03;56.92;;;;;;;;;;5001213;28;20113;-72
2022/11/28 02:15:36;;;;;;;80.15;61.63;;;;;;;;;;4981953;28;21891;-72
2022/11/28 02:18:13;;;;;;;78.63;52.57;;;;;;;;;;4970387;28;20042;-73
2022/11/28 02:21:02;;;;;;;65.00;41.38;;;;;;;;;;4980983;28;20108;-72
2022/11/28 02:24:06;;;;;;;63.10;40.83;;;;;;;;;;4995115;28;20041;-72
2022/11/28 02:26:49;;;;;;;85.15;69.35;;;;;;;;;;4973340;28;20040;-72
2022/11/28 02:29:18;;;;;;;86.50;65.85;;;;;;;;;;4979102;28;20121;-73
2022/11/28 02:32:02;;;;;;;87.00;71.57;;;;;;;;;;4975912;28;20670;-72
2022/11/28 02:34:30;;;;;;;98.63;73.70;;;;;;;;;;4999838;28;20162;-73
2022/11/28 02:37:13;;;;;;;90.13;67.07;;;;;;;;;;4998949;28;20048;-72
2022/11/28 02:39:52;;;;;;;90.22;60.63;;;;;;;;;;5001652;28;20366;-72
2022/11/28 02:42:19;;;;;;;68.60;46.75;;;;;;;;;;5002008;28;20041;-73
2022/11/28 02:44:44;;;;;;;74.97;47.20;;;;;;;;;;4998544;28;20056;-74
2022/11/28 02:47:19;;;;;;;80.55;50.83;;;;;;;;;;5000448;28;20041;-73
2022/11/28 02:49:55;;;;;;;67.63;41.00;;;;;;;;;;5001204;28;20537;-73
2022/11/28 02:52:25;;;;;;;90.63;57.60;;;;;;;;;;4992469;28;20115;-73
2022/11/28 02:54:51;;;;;;;74.07;46.22;;;;;;;;;;4979038;28;20254;-73
2022/11/28 02:57:16;;;;;;;61.15;35.13;;;;;;;;;;4996145;28;20286;-73
2022/11/28 02:59:45;;;;;;;67.15;42.10;;;;;;;;;;4978753;28;20926;-73
2022/11/28 03:02:29;;;;;;;67.03;36.95;;;;;;;;;;4981068;28;20038;-73
2022/11/28 03:04:54;;;;;;;68.38;38.70;;;;;;;;;;5011301;28;20038;-73
2022/11/28 03:07:38;;;;;;;84.25;48.17;;;;;;;;;;4980022;28;20045;-73
2022/11/28 03:10:09;;;;;;;71.32;39.60;;;;;;;;;;4972998;28;20065;-73
2022/11/28 03:12:47;;;;;;;81.10;45.05;;;;;;;;;;5000976;28;20793;-72
2022/11/28 03:15:16;;;;;;;87.25;44.92;;;;;;;;;;4980328;28;20729;-73
2022/11/28 03:17:53;;;;;;;89.35;47.53;;;;;;;;;;4976830;28;20172;-72
2022/11/28 03:20:41;;;;;;;88.97;42.67;;;;;;;;;;4981042;28;20057;-72
2022/11/28 03:23:24;;;;;;;74.82;36.47;;;;;;;;;;4977633;28;20125;-72
2022/11/28 03:26:02;;;;;;;83.60;44.10;;;;;;;;;;4981097;28;20040;-72
2022/11/28 03:28:36;;;;;;;111.43;67.72;;;;;;;;;;4979309;28;20045;-72
2022/11/28 03:31:06;;;;;;;113.78;57.75;;;;;;;;;;4981407;28;20214;-72
2022/11/28 03:33:36;;;;;;;109.22;52.45;;;;;;;;;;4978963;28;20352;-72
2022/11/28 03:36:07;;;;;;;100.85;46.60;;;;;;;;;;4981018;28;20057;-72
2022/11/28 03:38:35;;;;;;;98.97;45.67;;;;;;;;;;5009602;28;20076;-72
2022/11/28 03:41:03;;;;;;;105.20;48.22;;;;;;;;;;4980444;28;20084;-72
2022/11/28 03:43:40;;;;;;;95.68;45.15;;;;;;;;;;4979948;28;20137;-72
2022/11/28 03:46:08;;;;;;;87.05;44.10;;;;;;;;;;4979618;28;20131;-70
2022/11/28 03:48:37;;;;;;;76.15;40.30;;;;;;;;;;4978336;28;20037;-71
2022/11/28 03:51:12;;;;;;;81.22;41.50;;;;;;;;;;4978593;28;20415;-72
2022/11/28 03:53:44;;;;;;;84.40;44.60;;;;;;;;;;4981315;28;20128;-72
2022/11/28 03:56:12;;;;;;;70.38;39.38;;;;;;;;;;4981002;28;20570;-73
2022/11/28 03:58:48;;;;;;;58.38;34.10;;;;;;;;;;4977534;28;20725;-73
2022/11/28 04:01:19;;;;;;;89.47;47.92;;;;;;;;;;4981281;28;20274;-73
2022/11/28 04:03:57;;;;;;;92.22;50.75;;;;;;;;;;4994727;28;20517;-73
2022/11/28 04:06:26;;;;;;;74.25;43.10;;;;;;;;;;5000066;28;20088;-74
2022/11/28 04:09:06;;;;;;;69.50;40.95;;;;;;;;;;4991714;28;20127;-74
2022/11/28 04:11:43;;;;;;;73.22;43.10;;;;;;;;;;4979050;28;20140;-74
2022/11/28 04:14:17;;;;;;;63.58;36.80;;;;;;;;;;4977907;28;20045;-73
2022/11/28 04:16:58;;;;;;;64.88;34.35;;;;;;;;;;4994651;28;20045;-74
2022/11/28 04:19:29;;;;;;;60.83;34.47;;;;;;;;;;4975787;28;20045;-74
2022/11/28 04:22:00;;;;;;;52.77;31.63;;;;;;;;;;4980131;28;20812;-74
2022/11/28 04:24:32;;;;;;;53.17;35.35;;;;;;;;;;4977333;28;20326;-74
2022/11/28 04:26:59;;;;;;;50.05;30.90;;;;;;;;;;4979116;28;20063;-74
2022/11/28 04:29:25;;;;;;;48.45;28.58;;;;;;;;;;4979385;28;20042;-75
2022/11/28 04:31:53;;;;;;;43.83;27.73;;;;;;;;;;4980283;28;20033;-75
2022/11/28 04:34:22;;;;;;;53.08;31.23;;;;;;;;;;4985031;28;20172;-73
2022/11/28 04:36:48;;;;;;;51.55;29.77;;;;;;;;;;4981786;28;20041;-76
2022/11/28 04:39:16;;;;;;;47.40;28.50;;;;;;;;;;4977915;28;20120;-75
2022/11/28 04:41:47;;;;;;;51.40;28.85;;;;;;;;;;4978361;28;20037;-74
2022/11/28 04:44:18;;;;;;;50.75;30.90;;;;;;;;;;4974262;28;21789;-73
2022/11/28 04:46:50;;;;;;;53.05;30.95;;;;;;;;;;4978648;28;20044;-74
2022/11/28 04:49:15;;;;;;;46.88;25.35;;;;;;;;;;4979665;28;20504;-74
2022/11/28 04:51:47;;;;;;;41.90;23.35;;;;;;;;;;4978653;28;20057;-74
2022/11/28 04:54:13;;;;;;;;;;;;;;;;;;4981335;28;20153;-74
2022/11/28 04:56:44;;;;;;;39.35;23.10;;;;;;;;;;4983365;28;20456;-74
2022/11/28 04:59:11;;;;;;;31.85;19.23;;;;;;;;;;5013977;28;20183;-73
2022/11/28 05:01:37;;;;;;;31.48;17.80;;;;;;;;;;4980598;28;20099;-73
2022/11/28 05:04:05;;;;;;;36.00;22.83;;;;;;;;;;4983812;28;20133;-74
2022/11/28 05:06:32;;;;;;;49.50;29.23;;;;;;;;;;4981940;28;20333;-73
2022/11/28 05:08:58;;;;;;;67.57;34.45;;;;;;;;;;4983701;28;20029;-74
2022/11/28 05:11:23;;;;;;;56.55;32.03;;;;;;;;;;4981045;28;20044;-73
2022/11/28 05:13:51;;;;;;;55.80;30.10;;;;;;;;;;4989800;28;20109;-73
2022/11/28 05:16:16;;;;;;;66.15;35.63;;;;;;;;;;4997118;28;20034;-73
2022/11/28 05:18:44;;;;;;;57.45;31.20;;;;;;;;;;4976399;28;20418;-73
2022/11/28 05:21:10;;;;;;;32.40;18.13;;;;;;;;;;4983625;28;20038;-72
2022/11/28 05:23:36;;;;;;;34.92;17.38;;;;;;;;;;4981314;28;20414;-73
2022/11/28 05:26:12;;;;;;;35.28;16.02;;;;;;;;;;4976733;28;20033;-73
2022/11/28 05:28:37;;;;;;;27.15;14.80;;;;;;;;;;4981553;28;20661;-72
2022/11/28 05:31:03;;;;;;;28.73;11.48;;;;;;;;;;4984228;28;20045;-72
2022/11/28 05:33:29;;;;;;;22.50;10.43;;;;;;;;;;4980554;28;20276;-72
2022/11/28 05:35:56;;;;;;;21.63;8.82;;;;;;;;;;4980507;28;20445;-72
2022/11/28 05:38:21;;;;;;;19.65;9.65;;;;;;;;;;4982515;28;20434;-72
2022/11/28 05:40:47;;;;;;;30.90;10.43;;;;;;;;;;4980666;28;20639;-72
2022/11/28 05:43:12;;;;;;;27.88;8.77;;;;;;;;;;4981097;28;20182;-72
2022/11/28 05:45:38;;;;;;;16.90;6.50;;;;;;;;;;4999466;28;20873;-71
2022/11/28 05:48:04;;;;;;;17.08;3.38;;;;;;;;;;4977239;28;20033;-72
2022/11/28 05:50:29;;;;;;;11.07;1.50;;;;;;;;;;4983492;28;20042;-71
2022/11/28 05:52:54;;;;;;;17.13;1.67;;;;;;;;;;4981017;28;20049;-72
2022/11/28 05:55:20;;;;;;;12.70;1.85;;;;;;;;;;4964287;28;20038;-71
2022/11/28 05:57:45;;;;;;;9.45;1.30;;;;;;;;;;4962653;28;20394;-71
2022/11/28 06:00:11;;;;;;;16.10;1.50;;;;;;;;;;4982161;28;20433;-72
2022/11/28 06:02:36;;;;;;;13.90;1.67;;;;;;;;;;4978132;28;20053;-72
2022/11/28 06:05:01;;;;;;;9.18;1.42;;;;;;;;;;5000780;28;20044;-72
2022/11/28 06:07:27;;;;;;;14.45;1.83;;;;;;;;;;5000256;28;20048;-72
2022/11/28 06:09:52;;;;;;;10.32;1.42;;;;;;;;;;4980784;28;20070;-71
2022/11/28 06:12:17;;;;;;;15.05;1.83;;;;;;;;;;4982610;28;21052;-72
2022/11/28 06:14:43;;;;;;;10.65;1.50;;;;;;;;;;4998538;28;20045;-71
2022/11/28 06:17:10;;;;;;;19.15;1.88;;;;;;;;;;4998203;28;20096;-72
2022/11/28 06:19:35;;;;;;;11.75;1.50;;;;;;;;;;4992044;28;20049;-69
2022/11/28 06:22:01;;;;;;;13.93;1.58;;;;;;;;;;4999840;28;20044;-69
2022/11/28 06:24:27;;;;;;;6.45;1.05;;;;;;;;;;4999344;28;20044;-71
2022/11/28 06:26:54;;;;;;;5.80;1.33;;;;;;;;;;4998408;28;20446;-72
2022/11/28 06:29:19;;;;;;;13.98;2.10;;;;;;;;;;4995908;28;20529;-71
2022/11/28 06:31:45;;;;;;;6.25;1.58;;;;;;;;;;4999571;28;20432;-70
2022/11/28 06:34:11;;;;;;;12.95;3.65;;;;;;;;;;4999372;28;20042;-68
2022/11/28 06:36:37;;;;;;;19.05;6.15;;;;;;;;;;4995001;28;20581;-71
2022/11/28 06:39:03;;;;;;;31.38;16.52;;;;;;;;;;4996384;28;20433;-68
2022/11/28 06:41:28;;;;;;;38.70;17.83;;;;;;;;;;4994529;28;20033;-68
2022/11/28 06:43:54;;;;;;;38.42;16.50;;;;;;;;;;4994470;28;21841;-70
2022/11/28 06:46:20;;;;;;;33.38;15.48;;;;;;;;;;5000477;28;20111;-68
2022/11/28 06:48:46;;;;;;;42.67;20.50;;;;;;;;;;4999136;28;20134;-68
2022/11/28 06:51:12;;;;;;;44.65;24.77;;;;;;;;;;4996636;28;20543;-69
2022/11/28 06:53:37;;;;;;;51.88;27.73;;;;;;;;;;4996245;28;20376;-70
2022/11/28 06:56:03;;;;;;;50.20;28.73;;;;;;;;;;5004354;28;20552;-70
2022/11/28 06:58:29;;;;;;;65.20;32.55;;;;;;;;;;4977345;28;20624;-70
2022/11/28 07:00:54;;;;;;;49.85;29.55;;;;;;;;;;4974553;28;20030;-70
2022/11/28 07:03:19;;;;;;;47.42;24.80;;;;;;;;;;4974295;28;20038;-70
2022/11/28 07:05:45;;;;;;;42.65;21.95;;;;;;;;;;4991811;28;20068;-70
2022/11/28 07:08:10;;;;;;;62.38;33.20;;;;;;;;;;4977555;28;20119;-70
2022/11/28 07:10:36;;;;;;;73.13;40.33;;;;;;;;;;4977118;28;20038;-70
2022/11/28 07:13:01;;;;;;;65.30;38.20;;;;;;;;;;4947002;28;1153352;-71
2022/11/28 07:15:27;;;;;;;79.00;38.55;;;;;;;;;;4984935;28;20281;-73
2022/11/28 07:17:52;;;;;;;64.40;34.50;;;;;;;;;;4974889;28;20064;-73
2022/11/28 07:20:18;;;;;;;74.88;37.00;;;;;;;;;;4977169;28;20057;-72
2022/11/28 07:22:46;;;;;;;70.97;38.20;;;;;;;;;;4980787;28;20190;-72
2022/11/28 07:25:13;;;;;;;64.03;35.40;;;;;;;;;;4978038;28;20037;-72
2022/11/28 07:27:39;;;;;;;77.25;34.50;;;;;;;;;;4980845;28;20143;-72
2022/11/28 07:30:04;;;;;;;71.10;34.63;;;;;;;;;;4973437;28;20049;-71
2022/11/28 07:32:32;;;;;;;77.22;35.53;;;;;;;;;;4979592;28;20045;-71
2022/11/28 07:34:57;;;;;;;69.97;34.00;;;;;;;;;;4979885;28;20046;-72
2022/11/28 07:37:22;;;;;;;82.07;35.90;;;;;;;;;;4979362;28;20044;-73
2022/11/28 07:39:48;;;;;;;94.15;43.08;;;;;;;;;;4977124;28;20357;-70
2022/11/28 07:42:14;;;;;;;86.78;39.95;;;;;;;;;;4970650;28;21656;-72
2022/11/28 07:44:39;;;;;;;89.07;39.08;;;;;;;;;;4975010;28;20730;-71
2022/11/28 07:47:05;;;;;;;106.43;45.13;;;;;;;;;;4978615;28;20568;-71
2022/11/28 07:49:31;;;;;;;110.30;47.17;;;;;;;;;;4979223;28;20580;-71
2022/11/28 07:51:57;;;;;;;96.70;41.92;;;;;;;;;;5010588;28;20052;-72
2022/11/28 07:54:22;;;;;;;103.45;41.20;;;;;;;;;;4980882;28;20477;-70
2022/11/28 07:56:47;;;;;;;109.75;42.97;;;;;;;;;;4979788;28;20045;-71
2022/11/28 07:59:13;;;;;;;103.70;40.70;;;;;;;;;;4979813;28;20065;-71
2022/11/28 08:01:39;;;;;;;114.05;42.28;;;;;;;;;;4980795;28;20046;-69
2022/11/28 08:04:05;;;;;;;111.25;43.38;;;;;;;;;;4979459;28;20065;-70
2022/11/28 08:06:33;;;;;;;119.50;43.83;;;;;;;;;;4978725;28;20041;-70
2022/11/28 08:09:00;;;;;;;126.80;45.72;;;;;;;;;;4980688;28;20033;-70
2022/11/28 08:11:27;;;;;;;134.05;45.05;;;;;;;;;;4980248;28;20505;-69
2022/11/28 08:13:52;;;;;;;149.23;46.90;;;;;;;;;;4978868;28;20118;-70
2022/11/28 08:16:19;;;;;;;136.15;47.95;;;;;;;;;;4979347;28;20049;-70
2022/11/28 08:18:45;;;;;;;167.10;56.60;;;;;;;;;;4979787;28;20135;-70
2022/11/28 08:21:13;;;;;;;145.57;48.45;;;;;;;;;;4980115;28;20045;-70
2022/11/28 08:23:39;;;;;;;170.57;51.13;;;;;;;;;;4979251;28;20037;-70
2022/11/28 08:26:06;;;;;;;195.77;54.35;;;;;;;;;;4979205;28;20045;-70
2022/11/28 08:28:32;;;;;;;177.70;49.55;;;;;;;;;;4978174;28;20458;-70
2022/11/28 08:31:00;;;;;;;156.35;49.03;;;;;;;;;;4973482;28;20173;-69
2022/11/28 08:33:25;;;;;;;130.50;45.13;;;;;;;;;;4980772;28;20037;-70
2022/11/28 08:35:51;;;;;;;141.98;46.75;;;;;;;;;;4977996;28;20200;-68
2022/11/28 08:38:17;;;;;;;146.98;51.65;;;;;;;;;;5006573;28;20246;-68
2022/11/28 08:40:42;;;;;;;136.93;45.83;;;;;;;;;;4976618;28;20033;-72
2022/11/28 08:43:08;;;;;;;134.10;45.42;;;;;;;;;;4976076;28;20044;-69
2022/11/28 08:45:36;;;;;;;109.55;38.67;;;;;;;;;;4980800;28;20427;-70
2022/11/28 08:48:01;;;;;;;103.07;38.17;;;;;;;;;;4980772;28;20032;-70
2022/11/28 08:50:26;;;;;;;95.82;36.00;;;;;;;;;;4998442;28;20883;-70
2022/11/28 08:52:52;;;;;;;91.25;33.13;;;;;;;;;;4976892;28;20038;-70
2022/11/28 08:55:17;;;;;;;108.90;38.80;;;;;;;;;;4976131;28;20052;-72
2022/11/28 08:57:42;;;;;;;107.60;37.47;;;;;;;;;;4977259;28;20048;-74
2022/11/28 09:00:08;;;;;;;95.30;34.28;;;;;;;;;;4977086;28;20060;-72
2022/11/28 09:02:34;;;;;;;85.90;32.53;;;;;;;;;;4972696;28;20034;-73
2022/11/28 09:04:59;;;;;;;83.68;32.42;;;;;;;;;;4961584;28;20455;-71
2022/11/28 09:07:25;;;;;;;87.47;32.08;;;;;;;;;;5010643;28;20127;-73
2022/11/28 09:09:50;;;;;;;96.80;35.05;;;;;;;;;;5000633;28;20037;-72
2022/11/28 09:12:15;;;;;;;100.13;34.35;;;;;;;;;;4998979;28;20041;-72
2022/11/28 09:14:41;;;;;;;98.20;33.47;;;;;;;;;;4995800;28;20524;-72
2022/11/28 09:17:07;;;;;;;97.13;34.15;;;;;;;;;;5031661;28;20819;-73
2022/11/28 09:19:36;;;;;;;100.57;36.25;;;;;;;;;;5001261;28;20040;-73
2022/11/28 09:22:01;;;;;;;88.88;34.20;;;;;;;;;;4989826;28;20202;-73
2022/11/28 09:24:26;;;;;;;92.18;33.60;;;;;;;;;;5000902;28;20736;-72
2022/11/28 09:26:51;;;;;;;98.03;34.38;;;;;;;;;;5000742;28;20045;-71
2022/11/28 09:29:17;;;;;;;108.63;36.33;;;;;;;;;;4998940;28;20072;-72
2022/11/28 09:31:45;;;;;;;91.57;35.45;;;;;;;;;;5001607;28;20043;-72
2022/11/28 09:34:10;;;;;;;84.93;31.98;;;;;;;;;;5002043;28;20044;-71
2022/11/28 09:36:36;;;;;;;96.78;31.40;;;;;;;;;;5000890;28;20037;-71
2022/11/28 09:39:04;;;;;;;91.20;29.95;;;;;;;;;;5003100;28;20118;-71
2022/11/28 09:41:36;;;;;;;121.85;44.25;;;;;;;;;;5006843;28;20140;-71
2022/11/28 09:44:01;;;;;;;;;;;;;;;;;;4990879;28;20045;-70
2022/11/28 09:46:28;;;;;;;103.88;39.75;;;;;;;;;;5003475;28;19917;-70
2022/11/28 09:48:56;;;;;;;142.23;53.53;;;;;;;;;;5002502;28;21144;-70
2022/11/28 09:51:28;;;;;;;117.68;43.88;;;;;;;;;;4986766;28;20033;-69
2022/11/28 09:54:08;;;;;;;111.32;43.22;;;;;;;;;;4980819;28;20052;-69
2022/11/28 09:56:36;;;;;;;108.75;40.88;;;;;;;;;;4982966;28;20062;-69
2022/11/28 09:59:02;;;;;;;94.18;36.20;;;;;;;;;;4994223;28;20037;-69
2022/11/28 10:01:48;;;;;;;87.43;32.53;;;;;;;;;;4975502;28;20041;-69
2022/11/28 10:04:35;;;;;;;86.07;34.22;;;;;;;;;;4985038;28;20773;-68
2022/11/28 10:07:09;;;;;;;100.00;42.40;;;;;;;;;;4980766;28;20034;-68
2022/11/28 10:09:53;;;;;;;87.03;34.03;;;;;;;;;;4984279;28;20965;-69
2022/11/28 10:12:36;;;;;;;79.15;30.92;;;;;;;;;;4982277;28;20044;-69
2022/11/28 10:15:07;;;;;;;87.60;33.03;;;;;;;;;;4998984;28;20041;-69
2022/11/28 10:17:45;;;;;;;106.50;50.45;;;;;;;;;;4997388;28;20128;-68
2022/11/28 10:20:11;;;;;;;117.47;53.85;;;;;;;;;;4992203;28;20128;-68
2022/11/28 10:22:45;;;;;;;103.68;47.90;;;;;;;;;;4982499;28;22352;-71
2022/11/28 10:25:14;;;;;;;93.15;38.08;;;;;;;;;;4981065;28;20037;-70
2022/11/28 10:27:42;;;;;;;103.68;43.50;;;;;;;;;;4981917;28;20745;-70
2022/11/28 10:30:14;;;;;;;103.13;43.35;;;;;;;;;;4983045;28;20072;-68
2022/11/28 10:32:41;;;;;;;94.78;36.47;;;;;;;;;;4986518;28;20037;-68
2022/11/28 10:35:12;;;;;;;88.32;36.17;;;;;;;;;;4999916;28;20473;-70
2022/11/28 10:37:38;;;;;;;98.22;41.38;;;;;;;;;;4986499;28;20046;-69
2022/11/28 10:40:21;;;;;;;98.15;42.30;;;;;;;;;;4979833;28;20076;-70
2022/11/28 10:43:16;;;;;;;102.63;39.15;;;;;;;;;;4981998;28;20037;-69
2022/11/28 10:45:51;;;;;;;95.55;41.08;;;;;;;;;;4990530;28;20041;-70
2022/11/28 10:48:36;;;;;;;97.15;38.22;;;;;;;;;;4979783;28;20037;-70
2022/11/28 10:51:14;;;;;;;89.88;34.47;;;;;;;;;;4980574;28;20030;-70
2022/11/28 10:54:00;;;;;;;90.55;38.28;;;;;;;;;;4995132;28;20094;-70
2022/11/28 10:56:41;;;;;;;87.70;36.20;;;;;;;;;;4996358;28;20343;-69
2022/11/28 10:59:06;;;;;;;85.15;32.08;;;;;;;;;;5001685;28;20894;-70
2022/11/28 11:01:35;;;;;;;78.28;31.73;;;;;;;;;;5001886;28;20148;-70
2022/11/28 11:04:00;;;;;;;81.88;32.10;;;;;;;;;;4997683;28;21063;-70
2022/11/28 11:06:26;;;;;;;72.97;24.73;;;;;;;;;;5002391;28;20068;-70
2022/11/28 11:08:51;;;;;;;64.93;23.85;;;;;;;;;;5002849;28;20728;-70
2022/11/28 11:11:35;;;;;;;70.88;25.83;;;;;;;;;;5000158;28;20061;-70
2022/11/28 11:14:04;;;;;;;67.78;27.55;;;;;;;;;;4998003;28;20044;-70
2022/11/28 11:16:49;;;;;;;75.25;27.92;;;;;;;;;;5004001;28;20040;-70
2022/11/28 11:19:31;;;;;;;63.67;27.95;;;;;;;;;;5000856;28;20057;-70
2022/11/28 11:21:58;;;;;;;77.10;33.08;;;;;;;;;;4994692;28;20453;-70
2022/11/28 11:24:24;;;;;;;68.53;26.13;;;;;;;;;;5001841;28;20068;-70
2022/11/28 11:26:50;;;;;;;71.45;28.38;;;;;;;;;;5002377;28;20033;-70
2022/11/28 11:29:20;;;;;;;61.75;26.45;;;;;;;;;;5004334;28;20033;-70
2022/11/28 11:31:49;;;;;;;59.92;26.10;;;;;;;;;;5000952;28;20044;-70
2022/11/28 11:34:16;;;;;;;57.50;23.60;;;;;;;;;;4998783;28;20042;-70
2022/11/28 11:36:42;;;;;;;43.22;14.00;;;;;;;;;;4981715;28;20068;-70
2022/11/28 11:39:10;;;;;;;51.33;12.40;;;;;;;;;;4981274;28;20045;-70
2022/11/28 11:41:36;;;;;;;41.22;11.75;;;;;;;;;;4980504;28;20045;-69
2022/11/28 11:44:13;;;;;;;39.97;10.15;;;;;;;;;;4981773;28;20048;-70
2022/11/28 11:47:02;;;;;;;49.92;10.30;;;;;;;;;;5013169;28;20037;-69
2022/11/28 11:49:37;;;;;;;40.65;9.50;;;;;;;;;;4982123;28;20046;-69
2022/11/28 11:52:05;;;;;;;41.60;9.32;;;;;;;;;;4980255;28;20031;-69
2022/11/28 11:54:30;;;;;;;43.90;10.75;;;;;;;;;;4991619;28;20694;-70
2022/11/28 11:56:56;;;;;;;43.72;9.88;;;;;;;;;;4981156;28;20034;-72
2022/11/28 11:59:35;;;;;;;47.35;9.98;;;;;;;;;;4978228;28;20561;-70
2022/11/28 12:02:07;;;;;;;47.58;9.73;;;;;;;;;;4981738;28;20033;-70
2022/11/28 12:04:36;;;;;;;34.53;8.60;;;;;;;;;;4979713;28;20045;-70
2022/11/28 12:07:03;;;;;;;39.35;10.10;;;;;;;;;;4975364;28;20163;-69
2022/11/28 12:09:49;;;;;;;41.47;8.93;;;;;;;;;;4982452;28;20042;-70
2022/11/28 12:12:14;;;;;;;40.30;9.75;;;;;;;;;;4978690;28;20077;-70
2022/11/28 12:14:40;;;;;;;40.80;9.43;;;;;;;;;;4977653;28;20051;-69
2022/11/28 12:17:21;;;;;;;48.70;10.65;;;;;;;;;;4976192;28;20123;-70
2022/11/28 12:20:08;;;;;;;38.08;10.30;;;;;;;;;;4974946;28;20060;-70
2022/11/28 12:22:36;;;;;;;42.50;11.77;;;;;;;;;;4998850;28;20671;-69
2022/11/28 12:25:19;;;;;;;45.30;12.73;;;;;;;;;;4983093;28;20175;-69
2022/11/28 12:27:54;;;;;;;42.90;12.23;;;;;;;;;;4979074;28;20033;-68
2022/11/28 12:30:32;;;;;;;39.80;14.00;;;;;;;;;;4974032;28;20072;-68
2022/11/28 12:33:03;;;;;;;40.70;14.07;;;;;;;;;;4979766;28;20409;-68
2022/11/28 12:35:37;;;;;;;42.13;13.82;;;;;;;;;;4980279;28;20059;-68
2022/11/28 12:38:03;;;;;;;40.20;12.80;;;;;;;;;;4977467;28;20101;-68
2022/11/28 12:40:30;;;;;;;42.15;11.70;;;;;;;;;;4978963;28;20041;-68
2022/11/28 12:43:15;;;;;;;41.17;12.35;;;;;;;;;;4976993;28;20044;-70
2022/11/28 12:45:45;;;;;;;44.10;12.23;;;;;;;;;;4979795;28;20034;-68
2022/11/28 12:48:18;;;;;;;43.20;12.00;;;;;;;;;;4980109;28;20030;-68
2022/11/28 12:50:45;;;;;;;43.22;11.32;;;;;;;;;;5007704;28;20037;-68
2022/11/28 12:53:30;;;;;;;44.38;9.63;;;;;;;;;;5010239;28;20759;-68
2022/11/28 12:56:14;;;;;;;47.13;9.70;;;;;;;;;;4992926;28;20040;-68
2022/11/28 12:59:05;;;;;;;43.13;9.90;;;;;;;;;;4995735;28;20037;-68
2022/11/28 13:01:37;;;;;;;43.03;9.95;;;;;;;;;;4988918;28;20063;-68
2022/11/28 13:04:12;;;;;;;40.55;11.93;;;;;;;;;;4989532;28;20324;-68
2022/11/28 13:06:47;;;;;;;59.63;22.90;;;;;;;;;;4992742;28;20822;-68
2022/11/28 13:09:31;;;;;;;59.42;23.67;;;;;;;;;;4995605;28;20028;-68
2022/11/28 13:12:12;;;;;;;52.35;19.17;;;;;;;;;;4996080;28;20227;-68
2022/11/28 13:14:51;;;;;;;47.28;14.93;;;;;;;;;;4996250;28;20295;-68
2022/11/28 13:17:35;;;;;;;48.85;12.98;;;;;;;;;;4981746;28;20045;-68
2022/11/28 13:20:15;;;;;;;46.33;10.00;;;;;;;;;;4997187;28;20048;-68
2022/11/28 13:22:49;;;;;;;44.85;9.48;;;;;;;;;;5001468;28;20037;-68
2022/11/28 13:25:36;;;;;;;35.83;9.30;;;;;;;;;;5000743;28;20088;-68
2022/11/28 13:28:12;;;;;;;46.28;10.68;;;;;;;;;;4999879;28;20236;-68
2022/11/28 13:30:50;;;;;;;46.50;8.45;;;;;;;;;;4983998;28;20384;-68
2022/11/28 13:33:28;;;;;;;45.78;8.75;;;;;;;;;;4983045;28;20037;-68
2022/11/28 13:35:53;;;;;;;40.03;8.52;;;;;;;;;;5000814;28;20170;-68
2022/11/28 13:38:26;;;;;;;39.58;7.55;;;;;;;;;;4999630;28;20750;-68
2022/11/28 13:41:27;;;;;;;35.95;7.63;;;;;;;;;;5014012;28;20178;-68
2022/11/28 13:44:01;;;;;;;42.72;8.55;;;;;;;;;;4974866;28;20025;-68
2022/11/28 13:46:26;;;;;;;35.40;8.20;;;;;;;;;;4992408;28;20052;-67
2022/11/28 13:48:57;;;;;;;36.05;7.97;;;;;;;;;;4996319;28;21761;-67
2022/11/28 13:51:25;;;;;;;39.40;8.90;;;;;;;;;;5001198;28;20641;-67
2022/11/28 13:54:12;;;;;;;40.22;8.43;;;;;;;;;;5002490;28;20308;-67
2022/11/28 13:56:37;;;;;;;32.60;8.35;;;;;;;;;;5001114;28;20034;-67
2022/11/28 13:59:02;;;;;;;32.72;7.68;;;;;;;;;;5000977;28;20071;-67
2022/11/28 14:01:30;;;;;;;36.05;7.93;;;;;;;;;;4982435;28;20049;-67
2022/11/28 14:04:00;;;;;;;39.75;8.45;;;;;;;;;;4981859;28;20682;-67
2022/11/28 14:06:27;;;;;;;39.42;7.63;;;;;;;;;;4984139;28;20150;-67
2022/11/28 14:09:06;;;;;;;36.47;7.43;;;;;;;;;;4980803;28;20267;-67
2022/11/28 14:11:48;;;;;;;39.53;7.85;;;;;;;;;;4979243;28;20325;-68
2022/11/28 14:14:13;;;;;;;;;;;;;;;;;;4983696;28;20592;-67
2022/11/28 14:16:41;;;;;;;30.55;7.85;;;;;;;;;;4978772;28;19922;-67
2022/11/28 14:19:22;;;;;;;45.58;8.52;;;;;;;;;;4978687;28;20053;-67
2022/11/28 14:22:01;;;;;;;30.08;7.50;;;;;;;;;;4981356;28;20038;-67
2022/11/28 14:24:26;;;;;;;29.05;7.20;;;;;;;;;;4979491;28;20041;-67
2022/11/28 14:27:02;;;;;;;35.65;7.32;;;;;;;;;;4979862;28;20037;-67
2022/11/28 14:29:38;;;;;;;38.38;7.72;;;;;;;;;;4977749;28;20069;-67
2022/11/28 14:32:04;;;;;;;37.50;9.55;;;;;;;;;;4980800;28;20049;-67
2022/11/28 14:34:39;;;;;;;39.28;9.95;;;;;;;;;;4983350;28;20183;-67